Time;durP1;ratioP1;P1;durP2;ratioP2;P2;SDS_P1;SDS_P2;PMS_P1;PMS_P2;Temp;Humidity;BMP_temperature;BMP_pressure;BME280_temperature;BME280_humidity;BME280_pressure;Samples;Min_cycle;Max_cycle;Signal;HPM_P1;HPM_P2
2022/06/11 00:00:58;;;;;;;10.23;8.85;;;;;;;16.31;84.37;101181.77;1653911;86;25890;-83
2022/06/11 00:03:24;;;;;;;10.25;9.35;;;;;;;16.33;84.73;101191.84;1682884;85;25905;-83
2022/06/11 00:05:51;;;;;;;9.80;8.73;;;;;;;16.34;84.89;101196.19;1683064;84;27538;-82
2022/06/11 00:08:20;;;;;;;9.75;8.85;;;;;;;16.37;85.13;101190.89;1636370;87;26663;-83
2022/06/11 00:10:46;;;;;;;9.85;8.95;;;;;;;16.39;85.30;101192.86;1692698;84;25539;-82
2022/06/11 00:13:14;;;;;;;11.03;9.58;;;;;;;16.41;85.45;101194.32;1697524;83;25945;-81
2022/06/11 00:15:42;;;;;;;11.80;10.60;;;;;;;16.43;85.55;101202.22;1683905;83;25851;-82
2022/06/11 00:18:09;;;;;;;12.90;10.48;;;;;;;16.44;85.86;101202.02;1691884;83;27532;-83
2022/06/11 00:20:36;;;;;;;11.85;10.75;;;;;;;16.45;86.21;101205.02;1716918;82;26505;-82
2022/06/11 00:23:02;;;;;;;13.60;10.72;;;;;;;16.43;86.38;101207.11;1725755;82;25918;-81
2022/06/11 00:25:31;;;;;;;14.07;11.20;;;;;;;16.43;86.37;101207.63;1707328;82;25572;-82
2022/06/11 00:27:57;;;;;;;13.13;11.80;;;;;;;16.47;86.59;101211.56;1724757;82;25835;-82
2022/06/11 00:30:23;;;;;;;12.37;10.85;;;;;;;16.48;86.73;101205.97;1722456;82;27684;-82
2022/06/11 00:32:51;;;;;;;13.72;12.33;;;;;;;16.50;86.99;101208.48;1708968;82;25955;-83
2022/06/11 00:35:18;;;;;;;14.15;12.00;;;;;;;16.50;87.48;101206.63;1705980;82;25879;-81
2022/06/11 00:37:45;;;;;;;12.53;11.33;;;;;;;16.49;87.75;101213.02;1706041;82;25833;-82
2022/06/11 00:40:16;;;;;;;12.85;11.55;;;;;;;16.45;87.77;101207.73;1688709;84;25850;-82
2022/06/11 00:42:44;;;;;;;12.88;11.57;;;;;;;16.45;87.87;101212.30;1719511;82;27442;-82
2022/06/11 00:45:25;;;;;;;11.15;10.13;;;;;;;16.45;87.97;101219.90;1695495;83;26333;-82
2022/06/11 00:48:03;;;;;;;13.00;11.53;;;;;;;16.46;88.18;101212.11;1683390;83;26410;-82
2022/06/11 00:50:38;;;;;;;13.65;10.30;;;;;;;16.47;88.22;101216.46;1699139;82;25862;-82
2022/06/11 00:53:10;;;;;;;12.98;10.82;;;;;;;16.46;88.26;101214.81;1728827;81;25831;-82
2022/06/11 00:55:39;;;;;;;11.73;10.53;;;;;;;16.46;88.37;101215.33;1716221;82;27460;-83
2022/06/11 00:58:19;;;;;;;11.25;9.80;;;;;;;16.43;88.39;101215.73;1732700;82;25875;-82
2022/06/11 01:00:54;;;;;;;11.38;9.10;;;;;;;16.37;88.34;101212.02;1710522;81;25852;-82
2022/06/11 01:03:32;;;;;;;11.93;10.63;;;;;;;16.35;88.52;101205.98;1686775;83;25993;-82
2022/06/11 01:06:37;;;;;;;10.00;9.18;;;;;;;16.35;88.45;101206.50;1699743;82;26561;-82
2022/06/11 01:09:29;;;;;;;11.35;9.50;;;;;;;16.35;88.48;101202.44;1698210;82;27464;-82
2022/06/11 01:12:06;;;;;;;11.78;10.30;;;;;;;16.34;88.45;101200.25;1686454;83;26124;-82
2022/06/11 01:15:10;;;;;;;10.98;9.25;;;;;;;16.32;88.36;101202.84;1712827;82;25876;-82
2022/06/11 01:17:49;;;;;;;11.00;9.48;;;;;;;16.30;88.25;101211.17;1722027;82;25872;-82
2022/06/11 01:20:29;;;;;;;13.38;8.75;;;;;;;16.26;87.91;101203.69;1716140;82;25309;-83
2022/06/11 01:23:28;;;;;;;10.13;9.13;;;;;;;16.23;87.72;101202.77;1720542;81;27451;-82
2022/06/11 01:26:07;;;;;;;10.00;8.70;;;;;;;16.20;87.72;101203.50;1695103;83;25855;-82
2022/06/11 01:29:29;;;;;;;11.57;9.48;;;;;;;16.16;87.45;101204.97;1698381;83;26242;-82
2022/06/11 01:32:19;;;;;;;11.15;9.20;;;;;;;16.15;87.66;101200.58;1720627;82;26453;-82
2022/06/11 01:35:12;;;;;;;10.53;9.43;;;;;;;16.12;87.76;101199.63;1715686;82;26438;-82
2022/06/11 01:37:57;;;;;;;11.10;10.00;;;;;;;16.09;87.61;101196.53;1710788;82;27473;-81
2022/06/11 01:40:41;;;;;;;10.30;9.38;;;;;;;16.07;87.46;101204.85;1694669;83;26685;-82
2022/06/11 01:43:19;;;;;;;11.68;8.85;;;;;;;16.06;87.15;101209.09;1710392;82;25886;-82
2022/06/11 01:45:47;;;;;;;10.40;9.40;;;;;;;16.02;87.16;101200.58;1709870;82;26643;-82
2022/06/11 01:48:19;;;;;;;13.38;10.55;;;;;;;15.98;86.85;101203.90;1715073;82;25999;-82
2022/06/11 01:51:11;;;;;;;10.28;9.25;;;;;;;15.95;86.87;101201.62;1718523;82;28087;-82
2022/06/11 01:54:13;;;;;;;10.45;9.00;;;;;;;15.92;86.88;101197.98;1698280;82;26196;-83
2022/06/11 01:56:48;;;;;;;9.95;8.95;;;;;;;15.88;86.81;101191.33;1671552;83;25868;-82
2022/06/11 01:59:28;;;;;;;9.38;8.45;;;;;;;15.83;86.77;101197.34;1679099;84;25761;-82
2022/06/11 02:02:16;;;;;;;8.88;8.08;;;;;;;15.77;86.39;101195.47;1697929;82;32493;-82
2022/06/11 02:04:48;;;;;;;10.08;8.88;;;;;;;15.74;86.50;101189.13;1662085;84;27484;-82
2022/06/11 02:07:29;;;;;;;8.93;7.55;;;;;;;15.75;86.48;101195.36;1718123;82;26035;-82
2022/06/11 02:10:07;;;;;;;8.98;8.18;;;;;;;15.72;86.26;101195.25;1707479;82;25888;-83
2022/06/11 02:12:41;;;;;;;11.97;9.20;;;;;;;15.69;86.11;101197.55;1722377;82;25941;-82
2022/06/11 02:15:19;;;;;;;9.98;8.98;;;;;;;15.69;86.56;101202.94;1706655;82;26378;-82
2022/06/11 02:17:50;;;;;;;10.03;9.03;;;;;;;15.70;86.50;101197.84;1697648;82;27541;-82
2022/06/11 02:20:21;;;;;;;9.90;8.90;;;;;;;15.71;86.67;101196.30;1703225;82;25921;-83
2022/06/11 02:22:53;;;;;;;9.50;8.60;;;;;;;15.70;86.47;101193.27;1711263;82;26009;-82
2022/06/11 02:25:28;;;;;;;9.65;8.65;;;;;;;15.66;86.09;101193.37;1694600;82;25915;-82
2022/06/11 02:28:00;;;;;;;9.55;8.65;;;;;;;15.62;85.93;101197.53;1704423;82;25745;-83
2022/06/11 02:30:30;;;;;;;10.65;8.63;;;;;;;15.60;86.07;101196.06;1689370;82;28321;-82
2022/06/11 02:32:58;;;;;;;11.35;9.13;;;;;;;15.57;86.32;101198.65;1703076;82;26309;-82
2022/06/11 02:35:58;;;;;;;11.05;8.30;;;;;;;15.52;86.22;101194.41;1681834;83;25849;-82
2022/06/11 02:38:27;;;;;;;8.95;8.05;;;;;;;15.47;85.80;101204.13;1715650;81;26019;-82
2022/06/11 02:40:59;;;;;;;9.78;8.78;;;;;;;15.42;85.80;101206.05;1735366;81;25771;-82
2022/06/11 02:43:27;;;;;;;9.25;8.13;;;;;;;15.38;85.88;101200.23;1714865;82;27444;-81
2022/06/11 02:45:54;;;;;;;10.65;8.53;;;;;;;15.35;85.62;101201.17;1722383;82;26460;-81
2022/06/11 02:48:22;;;;;;;9.93;8.95;;;;;;;15.33;85.87;101200.00;1709724;83;26014;-82
2022/06/11 02:50:48;;;;;;;10.10;9.20;;;;;;;15.33;85.81;101199.20;1701379;82;25869;-82
2022/06/11 02:53:16;;;;;;;10.58;9.30;;;;;;;15.31;85.97;101195.33;1690568;83;25922;-82
2022/06/11 02:55:45;;;;;;;12.55;10.63;;;;;;;15.32;85.99;101194.82;1723109;82;26936;-82
2022/06/11 02:58:13;;;;;;;11.85;10.03;;;;;;;15.31;86.08;101206.13;1700375;82;25800;-83
2022/06/11 03:00:45;;;;;;;11.63;9.83;;;;;;;15.29;85.94;101206.84;1715485;82;25821;-81
2022/06/11 03:03:11;;;;;;;10.58;9.58;;;;;;;15.27;85.94;101200.83;1722716;82;26576;-81
2022/06/11 03:05:39;;;;;;;10.93;9.83;;;;;;;15.27;86.04;101207.57;1728037;82;25818;-82
2022/06/11 03:08:07;;;;;;;10.88;9.80;;;;;;;15.27;86.20;101209.43;1733239;82;28268;-82
2022/06/11 03:10:35;;;;;;;11.50;9.18;;;;;;;15.27;86.13;101203.52;1719696;82;25996;-82
2022/06/11 03:13:01;;;;;;;8.88;8.08;;;;;;;15.31;86.16;101203.97;1715996;81;25900;-83
2022/06/11 03:15:28;;;;;;;8.80;7.90;;;;;;;15.32;85.93;101212.37;1739962;82;26557;-82
2022/06/11 03:17:56;;;;;;;8.38;7.58;;;;;;;15.30;85.80;101207.69;1704841;82;25932;-82
2022/06/11 03:20:27;;;;;;;8.70;7.78;;;;;;;15.29;85.84;101208.74;1727639;82;28138;-83
2022/06/11 03:22:54;;;;;;;8.43;7.70;;;;;;;15.29;85.68;101204.69;1719459;82;25892;-82
2022/06/11 03:25:22;;;;;;;7.83;7.15;;;;;;;15.33;85.83;101212.16;1722685;82;25812;-82
2022/06/11 03:27:50;;;;;;;9.75;8.85;;;;;;;15.37;85.70;101213.44;1734071;82;27062;-82
2022/06/11 03:30:17;;;;;;;13.62;9.45;;;;;;;15.43;85.90;101207.25;1735211;82;26419;-82
2022/06/11 03:32:43;;;;;;;10.45;8.98;;;;;;;15.51;86.36;101205.38;1735725;82;27461;-82
2022/06/11 03:35:12;;;;;;;9.75;8.85;;;;;;;15.59;86.36;101205.22;1732486;82;25814;-83
2022/06/11 03:37:39;;;;;;;10.00;9.00;;;;;;;15.63;86.42;101201.88;1716534;82;25392;-82
2022/06/11 03:40:08;;;;;;;9.75;8.90;;;;;;;15.68;86.45;101208.86;1720250;82;25876;-82
2022/06/11 03:42:34;;;;;;;10.60;8.90;;;;;;;15.73;86.47;101209.59;1723137;81;25896;-82
2022/06/11 03:45:01;;;;;;;10.18;9.08;;;;;;;15.77;86.94;101211.68;1718996;82;27682;-82
2022/06/11 03:47:27;;;;;;;10.90;9.78;;;;;;;15.80;87.11;101209.09;1672078;83;25986;-82
2022/06/11 03:49:53;;;;;;;10.85;8.53;;;;;;;15.84;87.26;101211.18;1712237;82;25881;-81
2022/06/11 03:52:20;;;;;;;14.25;9.60;;;;;;;15.88;87.21;101215.64;1688483;83;25871;-82
2022/06/11 03:54:47;;;;;;;10.95;8.88;;;;;;;15.93;87.26;101220.73;1716678;82;25818;-82
2022/06/11 03:57:13;;;;;;;8.55;7.72;;;;;;;15.98;87.36;101216.06;1727366;82;27458;-81
2022/06/11 03:59:39;;;;;;;10.13;9.13;;;;;;;16.05;87.58;101218.25;1732874;81;26002;-82
2022/06/11 04:02:06;;;;;;;9.05;8.15;;;;;;;16.11;87.67;101221.47;1693989;82;26147;-83
2022/06/11 04:04:32;;;;;;;9.65;8.75;;;;;;;16.16;87.72;101221.69;1694799;82;25815;-81
2022/06/11 04:07:01;;;;;;;10.63;8.40;;;;;;;16.24;88.14;101218.77;1717813;82;25779;-82
2022/06/11 04:09:32;;;;;;;9.03;7.97;;;;;;;16.34;88.21;101217.02;1718632;82;27449;-83
2022/06/11 04:12:00;;;;;;;10.72;8.18;;;;;;;16.40;88.11;101217.52;1707949;82;25880;-82
2022/06/11 04:14:27;;;;;;;10.20;7.40;;;;;;;16.44;88.19;101225.02;1720602;82;25332;-82
2022/06/11 04:17:07;;;;;;;8.60;7.67;;;;;;;16.54;88.33;101229.50;1722247;82;26635;-82
2022/06/11 04:19:41;;;;;;;8.10;7.07;;;;;;;16.64;88.24;101227.18;1714287;81;25805;-82
2022/06/11 04:22:08;;;;;;;9.28;7.78;;;;;;;16.73;87.98;101227.27;1693126;82;26965;-82
2022/06/11 04:24:35;;;;;;;8.60;7.70;;;;;;;16.76;87.66;101224.67;1696247;83;25875;-81
2022/06/11 04:27:05;;;;;;;9.68;7.33;;;;;;;16.74;87.68;101218.64;1696081;82;25758;-82
2022/06/11 04:29:36;;;;;;;8.98;6.50;;;;;;;16.74;87.61;101220.80;1706180;82;25814;-83
2022/06/11 04:32:07;;;;;;;7.30;6.33;;;;;;;16.75;87.48;101213.52;1700504;82;25797;-82
2022/06/11 04:34:34;;;;;;;7.95;6.97;;;;;;;16.77;87.40;101216.33;1699510;82;26916;-83
2022/06/11 04:37:00;;;;;;;7.30;6.08;;;;;;;16.82;87.53;101224.66;1674971;84;25851;-82
2022/06/11 04:39:31;;;;;;;11.75;6.35;;;;;;;16.85;87.41;101227.47;1720729;82;25805;-82
2022/06/11 04:41:59;;;;;;;8.25;6.20;;;;;;;16.89;86.99;101224.64;1722485;82;26060;-82
2022/06/11 04:44:26;;;;;;;8.38;5.67;;;;;;;16.91;86.78;101227.41;1730449;82;25980;-82
2022/06/11 04:46:53;;;;;;;12.60;6.78;;;;;;;16.93;86.52;101226.72;1718206;82;27460;-82
2022/06/11 04:49:20;;;;;;;6.15;5.37;;;;;;;16.98;86.23;101227.95;1717036;82;26460;-82
2022/06/11 04:51:46;;;;;;;7.55;5.47;;;;;;;17.01;86.61;101224.28;1698209;82;25871;-83
2022/06/11 04:54:13;;;;;;;5.35;4.85;;;;;;;17.09;85.97;101225.91;1711771;82;26369;-81
2022/06/11 04:56:40;;;;;;;5.50;4.95;;;;;;;17.17;86.13;101227.04;1695184;82;25971;-82
2022/06/11 04:59:07;;;;;;;5.20;4.72;;;;;;;17.25;85.79;101228.98;1698237;82;27467;-82
2022/06/11 05:01:34;;;;;;;5.17;4.67;;;;;;;17.33;84.89;101229.25;1686117;82;26327;-82
2022/06/11 05:04:00;;;;;;;7.00;4.75;;;;;;;17.40;84.82;101232.25;1700350;82;25884;-84
2022/06/11 05:06:32;;;;;;;4.62;4.17;;;;;;;17.48;84.78;101236.57;1710216;83;25791;-82
2022/06/11 05:08:59;;;;;;;4.90;4.00;;;;;;;17.54;84.42;101239.80;1706876;82;26490;-81
2022/06/11 05:11:25;;;;;;;6.62;4.30;;;;;;;17.62;84.21;101236.86;1710806;82;27456;-82
2022/06/11 05:13:52;;;;;;;4.80;4.37;;;;;;;17.68;83.58;101240.05;1704796;82;25874;-82
2022/06/11 05:16:21;;;;;;;4.67;4.15;;;;;;;17.75;83.32;101240.02;1708261;82;25964;-81
2022/06/11 05:18:49;;;;;;;5.28;4.70;;;;;;;17.79;83.12;101248.84;1715181;82;25786;-80
2022/06/11 05:21:15;;;;;;;6.45;4.00;;;;;;;17.84;82.74;101244.94;1721898;82;26036;-81
2022/06/11 05:23:42;;;;;;;8.63;4.30;;;;;;;17.87;81.94;101245.86;1717818;82;27482;-82
2022/06/11 05:26:09;;;;;;;8.83;6.05;;;;;;;17.93;82.37;101245.50;1714298;83;26099;-82
2022/06/11 05:28:36;;;;;;;6.72;5.28;;;;;;;18.02;82.29;101245.55;1717746;83;25837;-81
2022/06/11 05:31:03;;;;;;;5.15;4.50;;;;;;;18.09;82.77;101249.86;1707627;82;25829;-82
2022/06/11 05:33:29;;;;;;;6.58;3.98;;;;;;;18.21;82.79;101254.06;1694070;83;25860;-81
2022/06/11 05:35:57;;;;;;;7.22;5.22;;;;;;;18.28;82.11;101248.06;1695911;82;27596;-80
2022/06/11 05:38:28;;;;;;;4.65;4.08;;;;;;;18.33;82.24;101254.47;1711427;82;25803;-82
2022/06/11 05:40:55;;;;;;;5.70;3.83;;;;;;;18.36;81.61;101258.11;1722383;82;25350;-81
2022/06/11 05:43:22;;;;;;;4.83;3.83;;;;;;;18.40;81.79;101262.04;1692242;82;25861;-81
2022/06/11 05:45:57;;;;;;;4.08;3.10;;;;;;;18.47;81.63;101260.66;1729865;82;26762;-81
2022/06/11 05:48:38;;;;;;;5.80;3.45;;;;;;;18.52;80.70;101258.09;1722259;82;27474;-81
2022/06/11 05:51:06;;;;;;;5.37;3.75;;;;;;;18.57;80.42;101257.42;1702702;82;25879;-81
2022/06/11 05:53:36;;;;;;;4.28;3.33;;;;;;;18.62;80.21;101257.59;1684149;83;25761;-82
2022/06/11 05:56:05;;;;;;;4.43;3.43;;;;;;;18.69;80.26;101265.16;1687171;84;25859;-81
2022/06/11 05:58:40;;;;;;;4.47;3.58;;;;;;;18.79;80.14;101262.75;1713272;82;26021;-82
2022/06/11 06:01:08;;;;;;;4.05;3.65;;;;;;;18.89;80.92;101263.05;1725269;82;27667;-82
2022/06/11 06:03:35;;;;;;;4.83;3.62;;;;;;;18.97;80.06;101260.87;1713580;82;25844;-82
2022/06/11 06:06:03;;;;;;;3.45;3.15;;;;;;;19.08;80.45;101262.01;1709889;82;25687;-83
2022/06/11 06:08:29;;;;;;;4.40;3.98;;;;;;;19.17;80.63;101260.66;1717585;82;26276;-83
2022/06/11 06:10:55;;;;;;;4.37;3.98;;;;;;;19.30;80.80;101265.94;1687126;84;25941;-83
2022/06/11 06:16:06;;;;;;;5.47;3.22;;;;;;;19.35;79.14;101269.36;1706702;82;25336;-81
2022/06/11 06:18:32;;;;;;;2.92;2.72;;;;;;;19.29;78.52;101279.75;1720371;82;25713;-82
2022/06/11 06:20:59;;;;;;;3.50;3.15;;;;;;;19.32;77.36;101284.71;1704503;82;25868;-82
2022/06/11 06:23:25;;;;;;;3.50;2.92;;;;;;;19.40;78.80;101281.71;1710939;82;26048;-82
2022/06/11 06:25:51;;;;;;;3.20;2.90;;;;;;;19.50;78.99;101284.74;1707610;82;28375;-82
2022/06/11 06:28:18;;;;;;;4.08;2.75;;;;;;;19.62;79.42;101285.62;1720816;82;25923;-82
2022/06/11 06:30:45;;;;;;;3.08;2.37;;;;;;;19.72;77.80;101283.17;1689333;82;26075;-83
2022/06/11 06:33:12;;;;;;;4.83;2.70;;;;;;;19.76;77.03;101283.05;1689589;82;26616;-81
2022/06/11 06:35:38;;;;;;;2.90;2.40;;;;;;;19.84;76.62;101279.47;1710188;82;25362;-83
2022/06/11 06:38:06;;;;;;;3.40;2.40;;;;;;;19.95;75.41;101279.21;1716016;82;27442;-81
2022/06/11 06:40:34;;;;;;;3.67;2.55;;;;;;;19.94;73.75;101283.81;1712365;82;25295;-82
2022/06/11 06:43:01;;;;;;;3.70;2.60;;;;;;;19.95;73.25;101288.17;1725965;81;25600;-82
2022/06/11 06:45:29;;;;;;;5.05;2.08;;;;;;;19.91;71.82;101284.78;1698652;83;26357;-82
2022/06/11 06:47:55;;;;;;;2.50;1.65;;;;;;;19.86;72.12;101287.39;1717085;82;26473;-82
2022/06/11 06:50:22;;;;;;;4.17;1.90;;;;;;;19.92;71.80;101285.94;1700925;83;27042;-82
2022/06/11 06:52:50;;;;;;;2.12;1.92;;;;;;;19.89;69.92;101285.03;1709947;83;25762;-82
2022/06/11 06:55:17;;;;;;;4.90;2.00;;;;;;;19.96;70.25;101286.30;1709288;82;26394;-82
2022/06/11 06:57:43;;;;;;;3.90;2.50;;;;;;;19.97;69.44;101288.77;1689260;84;25950;-82
2022/06/11 07:00:11;;;;;;;6.20;2.37;;;;;;;19.98;69.93;101289.08;1715483;82;25952;-82
2022/06/11 07:02:37;;;;;;;3.95;2.40;;;;;;;20.05;70.31;101292.23;1720915;82;28316;-82
2022/06/11 07:05:05;;;;;;;4.03;2.27;;;;;;;20.10;70.02;101292.38;1721346;82;25451;-82
2022/06/11 07:07:31;;;;;;;2.22;2.00;;;;;;;20.17;69.48;101299.36;1717101;82;25925;-82
2022/06/11 07:09:57;;;;;;;3.80;2.47;;;;;;;20.25;69.28;101292.80;1695294;82;25809;-82
2022/06/11 07:12:24;;;;;;;3.45;2.17;;;;;;;20.27;67.75;101291.52;1713146;82;25844;-82
2022/06/11 07:14:50;;;;;;;6.05;2.47;;;;;;;20.30;70.01;101295.63;1682892;84;27467;-82
2022/06/11 07:17:18;;;;;;;3.72;2.17;;;;;;;20.35;68.13;101299.33;1681801;84;25934;-83
2022/06/11 07:19:58;;;;;;;2.85;2.10;;;;;;;20.34;67.95;101300.38;1698539;82;25992;-82
2022/06/11 07:22:32;;;;;;;3.52;2.35;;;;;;;20.33;67.82;101297.38;1687982;83;26331;-82
2022/06/11 07:25:02;;;;;;;2.45;1.98;;;;;;;20.40;68.00;101299.99;1730002;82;25883;-82
2022/06/11 07:27:34;;;;;;;4.55;2.25;;;;;;;20.47;67.83;101304.25;1695991;82;27421;-82
2022/06/11 07:30:08;;;;;;;2.67;2.45;;;;;;;20.56;67.59;101300.66;1721932;82;25914;-83
2022/06/11 07:32:35;;;;;;;3.50;2.40;;;;;;;20.55;66.55;101293.56;1712224;83;25831;-82
2022/06/11 07:35:05;;;;;;;4.10;2.62;;;;;;;20.58;68.13;101299.36;1704330;83;26612;-82
2022/06/11 07:37:35;;;;;;;3.40;2.50;;;;;;;20.64;67.79;101305.22;1711044;82;25757;-82
2022/06/11 07:40:03;;;;;;;3.90;2.30;;;;;;;20.69;67.17;101308.07;1702281;82;28303;-82
2022/06/11 07:42:30;;;;;;;4.08;2.22;;;;;;;20.50;64.31;101309.23;1700163;82;25959;-83
2022/06/11 07:44:56;;;;;;;2.55;1.82;;;;;;;20.31;64.32;101308.19;1692796;83;25799;-82
2022/06/11 07:50:11;;;;;;;3.77;2.00;;;;;;;20.35;65.88;101306.13;1714428;82;25818;-82
2022/06/11 07:52:42;;;;;;;3.85;2.05;;;;;;;20.48;65.03;101310.00;1715366;82;28166;-82
2022/06/11 07:55:10;;;;;;;4.28;1.80;;;;;;;20.47;64.03;101307.49;1716302;82;25986;-82
2022/06/11 07:57:38;;;;;;;2.70;1.30;;;;;;;20.49;64.77;101303.48;1715773;82;25748;-84
2022/06/11 08:00:10;;;;;;;3.98;1.80;;;;;;;20.53;64.71;101302.50;1714987;82;26033;-82
2022/06/11 08:02:39;;;;;;;2.10;1.42;;;;;;;20.61;64.47;101300.78;1689108;82;26026;-81
2022/06/11 08:05:06;;;;;;;3.40;1.52;;;;;;;20.67;62.72;101308.00;1690635;83;28309;-82
2022/06/11 08:07:33;;;;;;;4.00;1.67;;;;;;;20.69;62.87;101300.43;1682592;82;25784;-82
2022/06/11 08:09:59;;;;;;;3.05;1.37;;;;;;;20.74;63.17;101304.09;1704123;82;26322;-83
2022/06/11 08:12:26;;;;;;;1.12;1.02;;;;;;;20.75;60.45;101302.20;1690164;83;26633;-83
2022/06/11 08:17:41;;;;;;;2.50;1.20;;;;;;;20.84;60.52;101306.77;1753830;78;27068;-83
2022/06/11 08:20:12;;;;;;;0.95;0.82;;;;;;;20.86;59.68;101303.27;1768772;79;25287;-83
2022/06/11 08:22:39;;;;;;;0.80;0.80;;;;;;;20.87;58.24;101298.13;1780196;79;25331;-81
2022/06/11 08:25:06;;;;;;;2.00;1.10;;;;;;;20.83;58.38;101301.84;1791940;79;25819;-81
2022/06/11 08:27:33;;;;;;;3.80;1.10;;;;;;;20.84;58.85;101313.05;1739222;81;25854;-82
2022/06/11 08:29:59;;;;;;;3.55;1.00;;;;;;;20.83;58.09;101314.09;1753146;79;27441;-82
2022/06/11 08:32:26;;;;;;;2.65;1.30;;;;;;;20.85;59.05;101305.71;1765590;80;25335;-82
2022/06/11 08:34:52;;;;;;;1.15;1.05;;;;;;;20.92;59.60;101300.95;1752209;79;25885;-82
2022/06/11 08:37:18;;;;;;;1.42;1.20;;;;;;;20.99;59.65;101298.94;1768134;80;25735;-83
2022/06/11 08:39:45;;;;;;;4.03;1.42;;;;;;;21.07;59.52;101304.05;1772995;79;25707;-83
2022/06/11 08:42:37;;;;;;;1.52;1.37;;;;;;;21.11;59.50;101302.50;1769284;79;27494;-82
2022/06/11 08:45:30;;;;;;;3.92;1.20;;;;;;;21.19;60.16;101307.05;1745886;78;27046;-82
2022/06/11 08:48:02;;;;;;;2.27;1.12;;;;;;;21.22;57.74;101297.05;1804452;78;26459;-82
2022/06/11 08:50:40;;;;;;;3.62;1.10;;;;;;;21.14;58.08;101297.95;1815319;78;27150;-82
2022/06/11 08:53:07;;;;;;;2.25;1.20;;;;;;;21.07;57.62;101291.80;1841334;76;25240;-83
2022/06/11 08:55:37;;;;;;;1.60;1.02;;;;;;;21.09;58.49;101290.49;1840254;76;27598;-82
2022/06/11 08:58:27;;;;;;;1.72;0.82;;;;;;;21.18;58.08;101296.41;1815487;78;26444;-81
2022/06/11 09:01:37;;;;;;;1.35;0.93;;;;;;;21.23;58.07;101293.80;1811003;78;26487;-82
2022/06/11 09:04:21;;;;;;;2.02;1.22;;;;;;;21.30;57.65;101288.50;1819413;78;25988;-87
2022/06/11 09:07:11;;;;;;;1.72;0.98;;;;;;;21.24;57.65;101291.35;1815327;78;25785;-83
2022/06/11 09:10:01;;;;;;;2.37;0.90;;;;;;;21.27;57.14;101292.25;1747205;81;27464;-84
2022/06/11 09:12:42;;;;;;;1.72;1.05;;;;;;;21.27;56.25;101291.72;1770019;79;26581;-83
2022/06/11 09:15:26;;;;;;;;;;;;;;;21.30;57.45;101287.66;1766464;79;25844;-84
2022/06/11 09:18:28;;;;;;;2.62;1.40;;;;;;;21.38;55.61;101282.66;1772172;79;26439;-84
2022/06/11 09:21:36;;;;;;;5.70;1.20;;;;;;;21.40;56.76;101282.45;1776348;79;26122;-83
2022/06/11 09:24:41;;;;;;;5.55;1.40;;;;;;;21.50;57.57;101286.73;1775118;79;28237;-84
2022/06/11 09:27:21;;;;;;;1.82;0.98;;;;;;;21.58;56.57;101288.27;1766742;79;25891;-84
2022/06/11 09:29:56;;;;;;;2.70;1.12;;;;;;;21.64;58.27;101279.91;1778721;79;25814;-83
2022/06/11 09:32:43;;;;;;;2.00;1.00;;;;;;;21.68;56.49;101281.64;1775421;79;26562;-84
2022/06/11 09:35:40;;;;;;;3.70;1.20;;;;;;;21.75;56.63;101283.70;1769319;79;26047;-83
2022/06/11 09:38:25;;;;;;;1.85;0.90;;;;;;;21.76;55.27;101278.52;1766256;78;27542;-84
2022/06/11 09:41:32;;;;;;;1.37;0.95;;;;;;;21.73;55.31;101277.10;1779528;79;25766;-84
2022/06/11 09:44:31;;;;;;;2.42;0.82;;;;;;;21.77;55.53;101272.81;1766925;79;26708;-84
2022/06/11 09:47:15;;;;;;;5.08;0.95;;;;;;;21.84;55.36;101275.42;1774508;79;25785;-83
2022/06/11 09:50:07;;;;;;;1.90;1.10;;;;;;;21.85;53.85;101277.09;1740626;81;25750;-82
2022/06/11 09:53:02;;;;;;;4.72;1.10;;;;;;;21.84;54.34;101271.34;1769372;79;28266;-83
2022/06/11 09:55:52;;;;;;;2.05;0.90;;;;;;;21.87;55.91;101266.77;1753833;80;25921;-83
2022/06/11 09:59:00;;;;;;;2.53;1.30;;;;;;;21.97;51.05;101279.22;1753082;81;25838;-83
2022/06/11 10:01:35;;;;;;;1.72;1.10;;;;;;;21.97;51.05;101279.22;1775500;79;25854;-83
2022/06/11 10:04:10;;;;;;;2.05;0.85;;;;;;;21.81;53.01;101280.80;1782035;79;25749;-83
2022/06/11 10:06:52;;;;;;;2.90;1.30;;;;;;;21.78;54.14;101280.47;1766907;79;27729;-83
2022/06/11 10:09:27;;;;;;;3.50;1.20;;;;;;;21.78;54.40;101277.73;1769846;79;25317;-83
2022/06/11 10:12:22;;;;;;;2.20;1.20;;;;;;;21.83;54.18;101264.23;1789089;79;25809;-82
2022/06/11 10:15:02;;;;;;;2.20;0.82;;;;;;;21.92;54.68;101273.13;1766044;78;25830;-83
2022/06/11 10:18:06;;;;;;;1.98;1.10;;;;;;;21.99;54.46;101274.34;1767713;79;25927;-83
2022/06/11 10:20:37;;;;;;;1.47;0.90;;;;;;;22.06;53.92;101260.86;1764666;79;28350;-82
2022/06/11 10:23:37;;;;;;;4.20;1.30;;;;;;;22.21;54.12;101271.20;1753027;79;25343;-83
2022/06/11 10:26:28;;;;;;;1.47;1.05;;;;;;;22.21;53.27;101271.20;1771458;79;26022;-82
2022/06/11 10:29:21;;;;;;;1.50;0.90;;;;;;;22.11;53.27;101260.92;1773523;79;25957;-83
2022/06/11 10:31:59;;;;;;;3.47;0.82;;;;;;;22.13;54.23;101268.33;1775858;79;25756;-83
2022/06/11 10:34:28;;;;;;;1.35;0.90;;;;;;;22.14;53.39;101260.97;1781598;79;27488;-83
2022/06/11 10:37:03;;;;;;;1.85;1.10;;;;;;;22.13;52.93;101268.33;1773603;78;26082;-82
2022/06/11 10:39:45;;;;;;;1.22;1.02;;;;;;;22.14;53.04;101267.80;1755326;79;25934;-83
2022/06/11 10:42:26;;;;;;;3.58;1.35;;;;;;;22.15;54.43;101266.17;1782961;79;25773;-83
2022/06/11 10:44:54;;;;;;;;;;;;;;;22.28;52.94;101260.13;1766718;79;25982;-84
2022/06/11 10:47:46;;;;;;;1.80;0.90;;;;;;;22.31;50.68;101260.45;1751516;79;27425;-81
2022/06/11 10:50:29;;;;;;;3.25;1.15;;;;;;;22.26;51.22;101255.73;1769132;79;26331;-82
2022/06/11 10:53:23;;;;;;;1.37;1.12;;;;;;;22.30;52.06;101244.33;1764835;79;25827;-83
2022/06/11 10:56:03;;;;;;;3.85;1.47;;;;;;;22.30;52.67;101256.61;1742093;79;26418;-83
2022/06/11 10:58:46;;;;;;;3.02;1.00;;;;;;;22.34;53.42;101256.40;1752277;79;25887;-82
2022/06/11 11:01:21;;;;;;;3.50;0.93;;;;;;;22.35;52.24;101246.59;1764378;79;27476;-82
2022/06/11 11:09:48;;;;;;;2.65;0.90;;;;;;;22.31;53.82;101241.34;1651873;84;25910;-84
2022/06/11 11:12:20;;;;;;;1.82;1.10;;;;;;;22.38;53.90;101234.35;1680351;83;26415;-83
2022/06/11 11:14:58;;;;;;;1.72;1.12;;;;;;;22.48;53.84;101233.97;1683023;83;27982;-83
2022/06/11 11:17:28;;;;;;;1.40;1.12;;;;;;;22.62;54.18;101233.96;1671818;83;25838;-83
2022/06/11 11:20:30;;;;;;;1.90;0.80;;;;;;;22.63;52.49;101230.14;1638441;85;25881;-83
2022/06/11 11:23:11;;;;;;;2.55;1.00;;;;;;;22.65;51.81;101230.72;1646276;85;25785;-83
2022/06/11 11:25:40;;;;;;;;;;;;;;;22.61;50.93;101226.84;1720309;78;26535;-84
2022/06/11 11:28:30;;;;;;;2.20;1.10;;;;;;;22.71;53.07;101227.53;1762250;81;27470;-83
2022/06/11 11:31:07;;;;;;;1.87;1.00;;;;;;;22.72;50.70;101220.98;1746883;81;25698;-84
2022/06/11 11:36:24;;;;;;;2.08;1.30;;;;;;;22.82;51.78;101222.48;1715657;82;25825;-83
2022/06/11 11:39:16;;;;;;;2.52;1.30;;;;;;;22.91;51.17;101220.44;1741352;81;25564;-83
2022/06/11 11:42:11;;;;;;;2.05;1.05;;;;;;;22.96;51.42;101212.86;1740054;81;27641;-83
2022/06/11 11:44:46;;;;;;;2.83;1.10;;;;;;;23.03;51.05;101212.94;1759594;81;25861;-84
2022/06/11 11:47:28;;;;;;;4.97;0.93;;;;;;;23.11;50.78;101217.69;1759245;80;25577;-83
2022/06/11 11:50:09;;;;;;;1.82;0.90;;;;;;;23.05;48.94;101218.70;1734937;80;26604;-83
2022/06/11 11:52:41;;;;;;;;;;;;;;;23.03;49.23;101222.50;1746586;81;25870;-84
2022/06/11 11:55:20;;;;;;;1.25;0.90;;;;;;;23.03;47.88;101212.94;1758451;81;27549;-84
2022/06/11 11:58:22;;;;;;;3.35;1.02;;;;;;;22.98;48.57;101207.42;1703425;80;26798;-83
2022/06/11 12:00:52;;;;;;;;;;;;;;;23.03;51.49;101211.30;1700466;83;25807;-83
2022/06/11 12:03:40;;;;;;;2.50;0.80;;;;;;;23.17;50.37;101207.09;1710430;82;26379;-83
2022/06/11 12:06:11;;;;;;;2.20;1.00;;;;;;;23.16;49.36;101213.66;1701500;82;26436;-83
2022/06/11 12:08:45;;;;;;;3.22;1.30;;;;;;;23.17;49.05;101214.77;1734894;81;27437;-84
2022/06/11 12:11:31;;;;;;;2.40;0.90;;;;;;;23.22;50.10;101214.00;1746595;81;25938;-83
2022/06/11 12:14:17;;;;;;;4.70;1.55;;;;;;;23.26;49.45;101214.61;1734419;81;25883;-83